createdAt,value
2018-06-30T00:01:49.832Z,101381.75
2018-06-30T00:04:18.551Z,101390.17
2018-06-30T00:06:47.264Z,101386.47
2018-06-30T00:09:15.917Z,101382.84
2018-06-30T00:11:44.569Z,101389.22
2018-06-30T00:14:13.285Z,101384.75
2018-06-30T00:16:41.880Z,101386.11
2018-06-30T00:19:10.600Z,101391.86
2018-06-30T00:21:39.241Z,101387.12
2018-06-30T00:24:07.954Z,101391.80
2018-06-30T00:26:36.658Z,101392.56
2018-06-30T00:29:05.387Z,101391.90
2018-06-30T00:31:35.008Z,101393.91
2018-06-30T00:34:05.811Z,101395.38
2018-06-30T00:36:34.414Z,101404.97
2018-06-30T00:39:04.213Z,101398.42
2018-06-30T00:41:33.180Z,101408.08
2018-06-30T00:44:01.799Z,101402.89
2018-06-30T00:46:30.466Z,101396.93
2018-06-30T00:48:59.104Z,101402.89
2018-06-30T00:51:27.705Z,101411.64
2018-06-30T00:53:57.137Z,101409.77
2018-06-30T00:56:25.827Z,101411.44
2018-06-30T00:58:54.427Z,101414.27
2018-06-30T01:01:23.384Z,101416.99
2018-06-30T01:03:52.044Z,101419.17
2018-06-30T01:06:20.734Z,101420.01
2018-06-30T01:08:50.895Z,101414.81
2018-06-30T01:11:19.581Z,101419.52
2018-06-30T01:13:48.356Z,101420.44
2018-06-30T01:16:17.151Z,101420.23
2018-06-30T01:18:46.409Z,101422.02
2018-06-30T01:21:15.700Z,101423.47
2018-06-30T01:23:45.829Z,101427.74
2018-06-30T01:26:14.926Z,101432.02
2018-06-30T01:28:44.239Z,101433.77
2018-06-30T01:31:19.515Z,101440.77
2018-06-30T01:33:49.458Z,101438.97
2018-06-30T01:36:19.664Z,101444.38
2018-06-30T01:38:49.129Z,101438.47
2018-06-30T01:41:17.789Z,101437.00
2018-06-30T01:43:47.225Z,101441.57
2018-06-30T01:46:16.597Z,101436.09
2018-06-30T01:48:46.046Z,101438.79
2018-06-30T01:51:14.681Z,101436.18
2018-06-30T01:53:44.064Z,101437.53
2018-06-30T01:56:12.744Z,101443.65
2018-06-30T01:58:43.209Z,101442.78
2018-06-30T02:01:12.573Z,101451.00
2018-06-30T02:03:41.242Z,101448.19
2018-06-30T02:06:10.158Z,101450.87
2018-06-30T02:08:39.977Z,101450.56
2018-06-30T02:11:09.723Z,101458.05
2018-06-30T02:13:40.020Z,101463.13
2018-06-30T02:16:09.771Z,101460.94
2018-06-30T02:18:39.899Z,101468.48
2018-06-30T02:21:09.945Z,101465.17
2018-06-30T02:23:39.740Z,101466.93
2018-06-30T02:26:09.826Z,101466.34
2018-06-30T02:28:41.843Z,101470.89
2018-06-30T02:31:11.210Z,101475.64
2018-06-30T02:33:39.827Z,101476.36
2018-06-30T02:36:10.572Z,101484.23
2018-06-30T02:38:39.345Z,101475.62
2018-06-30T02:41:09.166Z,101473.53
2018-06-30T02:43:38.634Z,101479.98
2018-06-30T02:46:08.021Z,101482.13
2018-06-30T02:48:36.631Z,101488.36
2018-06-30T02:51:05.253Z,101488.47
2018-06-30T02:53:34.008Z,101490.64
2018-06-30T02:56:04.570Z,101489.28
2018-06-30T02:58:33.909Z,101490.95
2018-06-30T03:01:04.169Z,101495.06
2018-06-30T03:03:34.617Z,101495.68
2018-06-30T03:06:03.254Z,101498.25
2018-06-30T03:08:33.192Z,101501.07
2018-06-30T03:11:02.085Z,101507.47
2018-06-30T03:13:30.722Z,101505.48
2018-06-30T03:15:59.755Z,101506.28
2018-06-30T03:18:28.608Z,101511.80
2018-06-30T03:20:57.268Z,101512.19
2018-06-30T03:23:25.895Z,101516.62
2018-06-30T03:25:54.638Z,101513.41
2018-06-30T03:28:23.337Z,101517.87
2018-06-30T03:30:52.009Z,101516.33
2018-06-30T03:33:20.682Z,101514.02
2018-06-30T03:35:51.074Z,101515.41
2018-06-30T03:38:20.618Z,101515.69
2018-06-30T03:40:50.757Z,101513.06
2018-06-30T03:43:20.448Z,101518.97
2018-06-30T03:45:50.058Z,101515.25
2018-06-30T03:48:18.802Z,101520.54
2018-06-30T03:50:47.430Z,101519.25
2018-06-30T03:53:16.070Z,101518.09
2018-06-30T03:55:44.922Z,101522.91
2018-06-30T03:58:13.596Z,101526.83
2018-06-30T04:00:42.216Z,101527.38
2018-06-30T04:03:10.818Z,101528.30
2018-06-30T04:05:39.800Z,101531.41
2018-06-30T04:08:08.435Z,101536.19
2018-06-30T04:10:37.020Z,101536.00
2018-06-30T04:13:06.234Z,101538.50
2018-06-30T04:15:35.873Z,101540.88
2018-06-30T04:18:05.394Z,101545.05
2018-06-30T04:20:34.064Z,101544.25
2018-06-30T04:23:02.696Z,101550.98
2018-06-30T04:25:31.459Z,101553.52
2018-06-30T04:28:00.117Z,101552.45
2018-06-30T04:30:29.252Z,101554.00
2018-06-30T04:32:58.073Z,101550.98
2018-06-30T04:35:26.841Z,101554.16
2018-06-30T04:37:55.949Z,101556.41
2018-06-30T04:40:26.317Z,101557.98
2018-06-30T04:42:55.135Z,101560.38
2018-06-30T04:45:24.045Z,101556.72
2018-06-30T04:47:53.939Z,101557.49
2018-06-30T04:50:23.071Z,101565.16
2018-06-30T04:52:51.851Z,101568.97
2018-06-30T04:55:21.426Z,101573.55
2018-06-30T04:57:51.106Z,101566.98
2018-06-30T05:00:20.261Z,101563.01
2018-06-30T05:02:49.642Z,101567.28
2018-06-30T05:05:18.650Z,101571.42
2018-06-30T05:07:47.576Z,101576.00
2018-06-30T05:10:16.189Z,101575.44
2018-06-30T05:12:44.814Z,101572.25
2018-06-30T05:15:13.402Z,101574.83
2018-06-30T05:17:42.590Z,101576.10
2018-06-30T05:20:11.213Z,101577.16
2018-06-30T05:22:39.864Z,101579.21
2018-06-30T05:25:08.503Z,101572.15
2018-06-30T05:27:37.160Z,101582.23
2018-06-30T05:30:06.093Z,101583.58
2018-06-30T05:32:34.761Z,101580.83
2018-06-30T05:35:04.101Z,101581.45
2018-06-30T05:37:33.940Z,101588.62
2018-06-30T05:40:02.743Z,101589.31
2018-06-30T05:42:31.395Z,101587.96
2018-06-30T05:45:01.005Z,101587.13
2018-06-30T05:47:30.247Z,101589.70
2018-06-30T05:49:59.178Z,101592.16
2018-06-30T05:52:27.840Z,101593.36
2018-06-30T05:54:56.460Z,101591.30
2018-06-30T05:57:25.682Z,101595.36
2018-06-30T05:59:54.492Z,101595.37
2018-06-30T06:02:23.106Z,101601.61
2018-06-30T06:04:53.647Z,101599.75
2018-06-30T06:07:22.326Z,101598.80
2018-06-30T06:09:51.575Z,101597.36
2018-06-30T06:12:21.386Z,101606.82
2018-06-30T06:14:50.473Z,101609.09
2018-06-30T06:17:19.139Z,101607.22
2018-06-30T06:19:47.797Z,101601.73
2018-06-30T06:22:18.211Z,101600.59
2018-06-30T06:24:47.142Z,101604.44
2018-06-30T06:27:16.767Z,101600.27
2018-06-30T06:29:46.124Z,101601.73
2018-06-30T06:32:16.825Z,101604.55
2018-06-30T06:34:45.510Z,101606.62
2018-06-30T06:37:14.236Z,101605.05
2018-06-30T06:39:43.266Z,101596.34
2018-06-30T06:42:12.493Z,101599.32
2018-06-30T06:44:41.109Z,101607.97
2018-06-30T06:47:10.512Z,101603.57
2018-06-30T06:49:40.010Z,101607.41
2018-06-30T06:52:08.665Z,101609.02
2018-06-30T06:54:37.680Z,101603.29
2018-06-30T06:57:06.607Z,101604.98
2018-06-30T06:59:35.341Z,101599.22
2018-06-30T07:02:04.437Z,101606.98
2018-06-30T07:04:33.427Z,101604.13
2018-06-30T07:07:02.446Z,101599.36
2018-06-30T07:09:38.483Z,101604.85
2018-06-30T07:12:07.153Z,101605.53
2018-06-30T07:14:37.141Z,101605.09
2018-06-30T07:17:05.966Z,101604.66
2018-06-30T07:19:34.682Z,101604.29
2018-06-30T07:22:04.220Z,101602.47
2018-06-30T07:24:33.215Z,101605.84
2018-06-30T07:27:01.879Z,101612.45
2018-06-30T07:29:30.524Z,101603.79
2018-06-30T07:31:59.153Z,101597.36
2018-06-30T07:34:28.518Z,101591.70
2018-06-30T07:36:57.344Z,101598.12
2018-06-30T07:39:26.576Z,101601.22
2018-06-30T07:41:55.417Z,101599.70
2018-06-30T07:44:30.361Z,101604.00
2018-06-30T07:46:59.020Z,101599.20
2018-06-30T07:49:27.709Z,101610.02
2018-06-30T07:51:56.426Z,101603.81
2018-06-30T07:54:25.150Z,101604.64
2018-06-30T07:56:54.170Z,101602.77
2018-06-30T07:59:22.841Z,101600.08
2018-06-30T08:01:51.527Z,101602.11
2018-06-30T08:04:20.495Z,101601.08
2018-06-30T08:06:49.613Z,101609.19
2018-06-30T08:09:18.613Z,101610.44
2018-06-30T08:11:47.866Z,101601.54
2018-06-30T08:14:16.619Z,101595.25
2018-06-30T08:16:45.279Z,101600.90
2018-06-30T08:19:14.381Z,101599.94
2018-06-30T08:21:43.623Z,101596.86
2018-06-30T08:24:12.987Z,101600.94
2018-06-30T08:26:41.798Z,101607.30
2018-06-30T08:29:10.518Z,101606.23
2018-06-30T08:31:39.414Z,101610.81
2018-06-30T08:34:08.319Z,101609.22
2018-06-30T08:36:36.977Z,101611.57
2018-06-30T08:39:09.009Z,101606.02
2018-06-30T08:41:37.704Z,101608.92
2018-06-30T08:44:06.481Z,101614.38
2018-06-30T08:46:35.147Z,101613.95
2018-06-30T08:49:04.577Z,101609.21
2018-06-30T08:51:33.562Z,101606.53
2018-06-30T08:54:02.187Z,101615.03
2018-06-30T08:56:30.902Z,101617.36
2018-06-30T08:58:59.794Z,101607.86
2018-06-30T09:01:28.470Z,101604.98
2018-06-30T09:03:57.913Z,101610.70
2018-06-30T09:06:26.569Z,101602.92
2018-06-30T09:08:55.188Z,101608.91
2018-06-30T09:11:23.942Z,101605.17
2018-06-30T09:13:52.608Z,101613.11
2018-06-30T09:16:21.360Z,101616.44
2018-06-30T09:18:50.239Z,101619.27
2018-06-30T09:21:18.915Z,101611.43
2018-06-30T09:23:47.708Z,101613.29
2018-06-30T09:26:16.477Z,101606.69
2018-06-30T09:28:45.754Z,101603.00
2018-06-30T09:31:14.404Z,101610.02
2018-06-30T09:33:43.172Z,101613.41
2018-06-30T09:36:11.977Z,101609.91
2018-06-30T09:38:40.688Z,101603.89
2018-06-30T09:41:09.838Z,101605.15
2018-06-30T09:43:38.450Z,101606.25
2018-06-30T09:46:07.166Z,101612.33
2018-06-30T09:48:35.886Z,101603.08
2018-06-30T09:51:04.696Z,101603.09
2018-06-30T09:53:33.346Z,101606.06
2018-06-30T09:56:02.252Z,101604.36
2018-06-30T09:58:31.020Z,101600.54
2018-06-30T10:01:05.026Z,101603.13
2018-06-30T10:03:33.720Z,101602.92
2018-06-30T10:06:02.478Z,101604.33
2018-06-30T10:08:31.407Z,101594.47
2018-06-30T10:11:00.258Z,101595.76
2018-06-30T10:13:29.640Z,101595.22
2018-06-30T10:15:58.299Z,101589.34
2018-06-30T10:18:26.904Z,101590.73
2018-06-30T10:20:56.087Z,101602.66
2018-06-30T10:23:24.856Z,101597.61
2018-06-30T10:25:53.937Z,101585.77
2018-06-30T10:28:23.259Z,101583.50
2018-06-30T10:30:52.109Z,101584.25
2018-06-30T10:33:21.040Z,101579.23
2018-06-30T10:35:50.033Z,101578.02
2018-06-30T10:38:19.155Z,101579.83
2018-06-30T10:40:47.879Z,101580.90
2018-06-30T10:43:16.869Z,101587.00
2018-06-30T10:45:45.812Z,101575.66
2018-06-30T10:48:14.612Z,101581.39
2018-06-30T10:50:43.401Z,101569.72
2018-06-30T10:53:12.144Z,101562.80
2018-06-30T10:55:41.192Z,101559.23
2018-06-30T10:58:10.244Z,101571.09
2018-06-30T11:00:39.269Z,101565.98
2018-06-30T11:03:07.925Z,101554.61
2018-06-30T11:05:36.841Z,101561.05
2018-06-30T11:08:05.574Z,101558.44
2018-06-30T11:10:34.582Z,101559.67
2018-06-30T11:13:03.206Z,101552.44
2018-06-30T11:15:31.817Z,101548.34
2018-06-30T11:18:00.494Z,101540.73
2018-06-30T11:20:29.415Z,101548.31
2018-06-30T11:22:58.727Z,101548.78
2018-06-30T11:25:27.812Z,101541.98
2018-06-30T11:27:56.804Z,101540.94
2018-06-30T11:30:25.434Z,101540.92
2018-06-30T11:32:54.185Z,101543.61
2018-06-30T11:35:23.243Z,101531.40
2018-06-30T11:37:52.205Z,101530.60
2018-06-30T11:40:20.889Z,101539.52
2018-06-30T11:42:49.622Z,101536.61
2018-06-30T11:45:18.262Z,101532.33
2018-06-30T11:47:49.945Z,101527.31
2018-06-30T11:50:19.081Z,101537.17
2018-06-30T11:52:48.371Z,101538.57
2018-06-30T11:55:17.007Z,101536.48
2018-06-30T11:57:46.109Z,101528.11
2018-06-30T12:00:14.763Z,101532.53
2018-06-30T12:02:43.404Z,101530.20
2018-06-30T12:05:12.021Z,101525.94
2018-06-30T12:07:41.110Z,101526.60
2018-06-30T12:10:10.938Z,101515.21
2018-06-30T12:12:39.704Z,101522.38
2018-06-30T12:15:08.586Z,101524.98
2018-06-30T12:17:37.278Z,101523.62
2018-06-30T12:20:06.535Z,101518.50
2018-06-30T12:22:35.679Z,101528.67
2018-06-30T12:25:04.462Z,101527.86
2018-06-30T12:27:33.222Z,101534.84
2018-06-30T12:30:01.984Z,101523.22
2018-06-30T12:32:30.675Z,101530.09
2018-06-30T12:34:59.346Z,101531.70
2018-06-30T12:37:27.988Z,101540.48
2018-06-30T12:39:56.889Z,101539.37
2018-06-30T12:42:25.590Z,101531.55
2018-06-30T12:44:54.286Z,101528.84
2018-06-30T12:47:23.009Z,101526.83
2018-06-30T12:49:52.418Z,101521.09
2018-06-30T12:52:21.189Z,101516.44
2018-06-30T12:54:50.138Z,101518.03
2018-06-30T12:57:18.889Z,101513.16
2018-06-30T12:59:48.027Z,101515.80
2018-06-30T13:02:16.762Z,101517.78
2018-06-30T13:04:45.447Z,101516.69
2018-06-30T13:07:14.264Z,101520.23
2018-06-30T13:09:42.989Z,101504.73
2018-06-30T13:12:12.335Z,101503.87
2018-06-30T13:14:41.429Z,101500.81
2018-06-30T13:17:10.389Z,101497.41
2018-06-30T13:19:40.101Z,101490.88
2018-06-30T13:22:08.866Z,101499.39
2018-06-30T13:24:37.859Z,101492.40
2018-06-30T13:27:06.892Z,101485.59
2018-06-30T13:29:35.564Z,101486.81
2018-06-30T13:32:04.392Z,101498.06
2018-06-30T13:34:33.211Z,101495.48
2018-06-30T13:37:01.973Z,101495.48
2018-06-30T13:39:30.696Z,101496.38
2018-06-30T13:42:00.079Z,101491.84
2018-06-30T13:44:30.296Z,101497.40
2018-06-30T13:46:59.012Z,101494.89
2018-06-30T13:49:28.079Z,101501.91
2018-06-30T13:51:56.854Z,101499.73
2018-06-30T13:54:25.609Z,101494.63
2018-06-30T13:56:54.365Z,101491.78
2018-06-30T13:59:23.163Z,101489.64
2018-06-30T14:01:51.963Z,101483.93
2018-06-30T14:04:20.766Z,101485.27
2018-06-30T14:06:49.788Z,101482.27
2018-06-30T14:09:18.921Z,101475.61
2018-06-30T14:11:47.741Z,101470.75
2018-06-30T14:14:16.396Z,101470.48
2018-06-30T14:16:45.185Z,101472.17
2018-06-30T14:19:13.910Z,101470.08
2018-06-30T14:21:42.627Z,101473.05
2018-06-30T14:24:11.460Z,101476.59
2018-06-30T14:26:40.145Z,101483.58
2018-06-30T14:29:08.804Z,101484.22
2018-06-30T14:31:37.500Z,101485.22
2018-06-30T14:34:06.701Z,101484.05
2018-06-30T14:36:36.138Z,101492.38
2018-06-30T14:39:09.167Z,101489.49
2018-06-30T14:41:38.991Z,101482.66
2018-06-30T14:44:08.377Z,101482.70
2018-06-30T14:46:39.644Z,101472.64
2018-06-30T14:49:08.632Z,101472.70
2018-06-30T14:51:37.649Z,101470.58
2018-06-30T14:54:06.769Z,101471.45
2018-06-30T14:56:35.489Z,101471.78
2018-06-30T14:59:05.004Z,101472.61
2018-06-30T15:01:35.858Z,101478.56
2018-06-30T15:04:11.514Z,101475.35
2018-06-30T15:06:40.335Z,101486.56
2018-06-30T15:09:13.267Z,101476.53
2018-06-30T15:11:43.791Z,101465.12
2018-06-30T15:14:13.353Z,101458.34
2018-06-30T15:16:42.083Z,101465.02
2018-06-30T15:19:11.150Z,101467.06
2018-06-30T15:21:39.816Z,101461.89
2018-06-30T15:24:09.976Z,101462.23
2018-06-30T15:26:38.676Z,101456.70
2018-06-30T15:29:07.402Z,101445.75
2018-06-30T15:31:36.080Z,101451.61
2018-06-30T15:34:05.258Z,101460.41
2018-06-30T15:36:34.016Z,101449.95
2018-06-30T15:39:02.843Z,101456.70
2018-06-30T15:41:32.227Z,101453.61
2018-06-30T15:44:01.272Z,101460.36
2018-06-30T15:46:29.935Z,101461.11
2018-06-30T15:48:58.947Z,101459.38
2018-06-30T15:51:28.191Z,101469.09
2018-06-30T15:53:56.858Z,101472.47
2018-06-30T15:56:25.569Z,101471.62
2018-06-30T15:58:54.568Z,101466.57
2018-06-30T16:01:23.426Z,101464.23
2018-06-30T16:03:52.185Z,101459.59
2018-06-30T16:06:21.236Z,101466.25
2018-06-30T16:08:50.155Z,101461.54
2018-06-30T16:11:18.791Z,101456.25
2018-06-30T16:13:47.479Z,101457.97
2018-06-30T16:16:16.210Z,101457.91
2018-06-30T16:18:44.943Z,101453.97
2018-06-30T16:21:14.007Z,101453.62
2018-06-30T16:23:42.823Z,101454.03
2018-06-30T16:26:11.596Z,101457.67
2018-06-30T16:28:40.666Z,101457.47
2018-06-30T16:31:09.333Z,101451.34
2018-06-30T16:33:38.038Z,101445.62
2018-06-30T16:36:06.748Z,101449.92
2018-06-30T16:38:35.447Z,101443.95
2018-06-30T16:41:04.198Z,101448.28
2018-06-30T16:43:33.032Z,101451.00
2018-06-30T16:46:01.827Z,101446.51
2018-06-30T16:48:30.961Z,101450.66
2018-06-30T16:50:59.694Z,101454.04
2018-06-30T16:53:28.355Z,101456.25
2018-06-30T16:55:57.286Z,101450.55
2018-06-30T16:58:26.331Z,101449.85
2018-06-30T17:00:55.183Z,101449.03
2018-06-30T17:03:24.060Z,101452.17
2018-06-30T17:05:52.865Z,101451.81
2018-06-30T17:08:21.782Z,101442.47
2018-06-30T17:10:51.831Z,101448.00
2018-06-30T17:13:21.201Z,101445.05
2018-06-30T17:15:50.283Z,101442.70
2018-06-30T17:18:19.207Z,101441.77
2018-06-30T17:20:48.365Z,101442.66
2018-06-30T17:23:17.417Z,101447.96
2018-06-30T17:25:47.037Z,101440.46
2018-06-30T17:28:16.718Z,101453.72
2018-06-30T17:30:46.017Z,101454.70
2018-06-30T17:33:14.882Z,101455.13
2018-06-30T17:35:44.560Z,101455.11
2018-06-30T17:38:13.753Z,101451.23
2018-06-30T17:40:44.567Z,101457.72
2018-06-30T17:43:13.522Z,101457.91
2018-06-30T17:45:42.486Z,101457.39
2018-06-30T17:48:11.717Z,101466.08
2018-06-30T17:50:40.710Z,101464.31
2018-06-30T17:53:10.163Z,101461.45
2018-06-30T17:55:40.135Z,101470.05
2018-06-30T17:58:10.535Z,101466.73
2018-06-30T18:00:40.362Z,101471.81
2018-06-30T18:03:09.098Z,101468.91
2018-06-30T18:05:38.142Z,101470.20
2018-06-30T18:08:06.785Z,101472.62
2018-06-30T18:10:35.582Z,101477.82
2018-06-30T18:13:04.398Z,101475.11
2018-06-30T18:15:33.062Z,101484.01
2018-06-30T18:18:02.048Z,101484.34
2018-06-30T18:20:31.650Z,101489.66
2018-06-30T18:23:00.345Z,101493.68
2018-06-30T18:25:29.295Z,101493.53
2018-06-30T18:27:58.161Z,101494.81
2018-06-30T18:30:26.884Z,101488.14
2018-06-30T18:32:55.606Z,101498.78
2018-06-30T18:35:24.439Z,101498.34
2018-06-30T18:37:53.195Z,101495.33
2018-06-30T18:40:22.038Z,101498.66
2018-06-30T18:42:50.770Z,101493.98
2018-06-30T18:45:19.823Z,101502.87
2018-06-30T18:47:48.802Z,101501.58
2018-06-30T18:50:17.527Z,101500.63
2018-06-30T18:52:46.379Z,101503.12
2018-06-30T18:55:15.230Z,101507.41
2018-06-30T18:57:44.073Z,101504.86
2018-06-30T19:00:13.094Z,101511.17
2018-06-30T19:02:42.205Z,101514.80
2018-06-30T19:05:10.921Z,101515.02
2018-06-30T19:07:39.938Z,101520.53
2018-06-30T19:10:09.120Z,101519.48
2018-06-30T19:12:41.064Z,101526.42
2018-06-30T19:15:09.986Z,101520.53
2018-06-30T19:17:38.698Z,101531.63
2018-06-30T19:20:07.481Z,101528.81
2018-06-30T19:22:36.439Z,101536.20
2018-06-30T19:25:05.314Z,101535.30
2018-06-30T19:27:34.751Z,101539.81
2018-06-30T19:30:03.765Z,101541.45
2018-06-30T19:32:33.051Z,101541.45
2018-06-30T19:35:01.904Z,101544.59
2018-06-30T19:37:30.662Z,101547.77
2018-06-30T19:39:59.495Z,101552.30
2018-06-30T19:42:28.183Z,101554.92
2018-06-30T19:44:57.441Z,101553.75
2018-06-30T19:47:26.514Z,101558.98
2018-06-30T19:49:57.071Z,101564.66
2018-06-30T19:52:25.721Z,101560.80
2018-06-30T19:54:54.809Z,101574.17
2018-06-30T19:57:23.565Z,101572.96
2018-06-30T19:59:52.708Z,101577.03
2018-06-30T20:02:21.849Z,101573.95
2018-06-30T20:04:50.938Z,101572.92
2018-06-30T20:07:19.747Z,101574.22
2018-06-30T20:09:48.939Z,101572.91
2018-06-30T20:12:18.127Z,101571.84
2018-06-30T20:14:46.865Z,101574.27
2018-06-30T20:17:15.561Z,101573.70
2018-06-30T20:19:44.602Z,101576.36
2018-06-30T20:22:13.411Z,101576.62
2018-06-30T20:24:42.129Z,101572.34
2018-06-30T20:27:10.751Z,101574.80
2018-06-30T20:29:39.862Z,101581.25
2018-06-30T20:32:08.568Z,101578.85
2018-06-30T20:34:37.596Z,101585.87
2018-06-30T20:37:06.620Z,101581.67
2018-06-30T20:39:35.674Z,101579.11
2018-06-30T20:42:04.448Z,101576.83
2018-06-30T20:44:33.232Z,101588.22
2018-06-30T20:47:02.018Z,101586.13
2018-06-30T20:49:31.123Z,101585.82
2018-06-30T20:51:59.877Z,101589.05
2018-06-30T20:54:28.508Z,101590.27
2018-06-30T20:56:57.294Z,101594.72
2018-06-30T20:59:26.716Z,101592.67
2018-06-30T21:01:56.076Z,101594.58
2018-06-30T21:04:25.898Z,101592.91
2018-06-30T21:06:55.344Z,101593.13
2018-06-30T21:09:24.303Z,101597.19
2018-06-30T21:11:52.998Z,101600.38
2018-06-30T21:14:21.651Z,101604.36
2018-06-30T21:16:50.742Z,101600.13
2018-06-30T21:19:21.411Z,101606.71
2018-06-30T21:21:50.227Z,101601.69
2018-06-30T21:24:19.128Z,101602.03
2018-06-30T21:26:49.126Z,101613.05
2018-06-30T21:29:17.877Z,101611.84
2018-06-30T21:31:46.899Z,101609.16
2018-06-30T21:34:15.860Z,101610.81
2018-06-30T21:36:44.752Z,101616.55
2018-06-30T21:39:14.031Z,101611.87
2018-06-30T21:41:43.056Z,101614.70
2018-06-30T21:44:12.254Z,101613.23
2018-06-30T21:46:41.278Z,101615.11
2018-06-30T21:49:10.072Z,101619.69
2018-06-30T21:51:38.978Z,101618.88
2018-06-30T21:54:08.527Z,101622.00
2018-06-30T21:56:37.694Z,101620.14
2018-06-30T21:59:06.657Z,101628.56
2018-06-30T22:01:35.555Z,101621.38
2018-06-30T22:04:04.595Z,101624.73
2018-06-30T22:06:33.473Z,101628.04
2018-06-30T22:09:02.184Z,101629.31
2018-06-30T22:11:31.251Z,101632.02
2018-06-30T22:14:00.058Z,101633.25
2018-06-30T22:16:28.743Z,101632.02
2018-06-30T22:18:57.549Z,101641.73
2018-06-30T22:21:26.175Z,101632.48
2018-06-30T22:23:55.134Z,101638.13
2018-06-30T22:26:23.981Z,101644.56
2018-06-30T22:28:52.952Z,101640.59
2018-06-30T22:31:21.899Z,101642.58
2018-06-30T22:33:50.881Z,101634.98
2018-06-30T22:36:19.841Z,101635.30
2018-06-30T22:38:48.823Z,101645.88
2018-06-30T22:41:17.547Z,101642.57
2018-06-30T22:43:46.690Z,101641.73
2018-06-30T22:46:15.744Z,101638.79
2018-06-30T22:48:44.397Z,101638.39
2018-06-30T22:51:13.011Z,101640.25
2018-06-30T22:53:41.704Z,101641.17
2018-06-30T22:56:10.329Z,101647.72
2018-06-30T22:58:39.800Z,101649.45
2018-06-30T23:01:08.877Z,101646.34
2018-06-30T23:03:37.543Z,101654.77
2018-06-30T23:06:06.672Z,101652.88
2018-06-30T23:08:41.748Z,101657.33
2018-06-30T23:11:10.394Z,101653.89
2018-06-30T23:13:39.690Z,101651.08
2018-06-30T23:16:08.729Z,101653.77
2018-06-30T23:18:37.415Z,101657.31
2018-06-30T23:21:06.551Z,101660.52
2018-06-30T23:23:36.328Z,101651.27
2018-06-30T23:26:05.430Z,101657.19
2018-06-30T23:28:34.046Z,101654.80
2018-06-30T23:31:03.121Z,101660.34
2018-06-30T23:33:31.753Z,101659.61
2018-06-30T23:36:01.054Z,101660.77
2018-06-30T23:38:30.587Z,101664.25
2018-06-30T23:40:59.851Z,101664.34
2018-06-30T23:43:28.778Z,101661.00
2018-06-30T23:45:57.410Z,101660.62
2018-06-30T23:48:26.437Z,101653.20
2018-06-30T23:50:55.161Z,101656.39
2018-06-30T23:53:23.914Z,101656.91
2018-06-30T23:55:52.582Z,101662.08
2018-06-30T23:58:21.224Z,101659.28
